sensor_id;sensor_type;location;lat;lon;timestamp;P1;durP1;ratioP1;P2;durP2;ratioP2
74945;SDS011;63509;45.250;38.102;2022-12-18T00:01:37;15.10;;;4.15;;
74945;SDS011;63509;45.250;38.102;2022-12-18T00:04:04;13.38;;;3.80;;
74945;SDS011;63509;45.250;38.102;2022-12-18T00:06:31;16.10;;;3.13;;
74945;SDS011;63509;45.250;38.102;2022-12-18T00:08:59;6.28;;;3.22;;
74945;SDS011;63509;45.250;38.102;2022-12-18T00:11:27;10.40;;;3.28;;
74945;SDS011;63509;45.250;38.102;2022-12-18T00:13:55;9.10;;;3.50;;
74945;SDS011;63509;45.250;38.102;2022-12-18T00:16:23;14.90;;;3.38;;
74945;SDS011;63509;45.250;38.102;2022-12-18T00:18:52;13.52;;;3.30;;
74945;SDS011;63509;45.250;38.102;2022-12-18T00:21:19;7.35;;;2.45;;
74945;SDS011;63509;45.250;38.102;2022-12-18T00:23:47;4.97;;;2.60;;
74945;SDS011;63509;45.250;38.102;2022-12-18T00:26:15;8.77;;;2.88;;
74945;SDS011;63509;45.250;38.102;2022-12-18T00:28:44;4.45;;;2.55;;
74945;SDS011;63509;45.250;38.102;2022-12-18T00:31:11;8.18;;;2.97;;
74945;SDS011;63509;45.250;38.102;2022-12-18T00:33:39;4.25;;;2.25;;
74945;SDS011;63509;45.250;38.102;2022-12-18T00:36:15;4.93;;;2.67;;
74945;SDS011;63509;45.250;38.102;2022-12-18T00:38:44;8.02;;;2.63;;
74945;SDS011;63509;45.250;38.102;2022-12-18T00:41:11;6.85;;;2.72;;
74945;SDS011;63509;45.250;38.102;2022-12-18T00:43:39;4.25;;;2.30;;
74945;SDS011;63509;45.250;38.102;2022-12-18T00:46:05;4.93;;;2.38;;
74945;SDS011;63509;45.250;38.102;2022-12-18T00:48:32;6.25;;;2.72;;
74945;SDS011;63509;45.250;38.102;2022-12-18T00:50:58;5.32;;;2.65;;
74945;SDS011;63509;45.250;38.102;2022-12-18T00:53:24;5.43;;;2.97;;
74945;SDS011;63509;45.250;38.102;2022-12-18T00:55:50;11.43;;;3.25;;
74945;SDS011;63509;45.250;38.102;2022-12-18T00:58:16;6.38;;;2.95;;
74945;SDS011;63509;45.250;38.102;2022-12-18T01:00:42;11.05;;;3.65;;
74945;SDS011;63509;45.250;38.102;2022-12-18T01:03:11;6.07;;;3.03;;
74945;SDS011;63509;45.250;38.102;2022-12-18T01:05:40;9.40;;;3.67;;
74945;SDS011;63509;45.250;38.102;2022-12-18T01:08:06;8.85;;;3.60;;
74945;SDS011;63509;45.250;38.102;2022-12-18T01:10:32;13.90;;;3.20;;
74945;SDS011;63509;45.250;38.102;2022-12-18T01:12:58;11.18;;;3.13;;
74945;SDS011;63509;45.250;38.102;2022-12-18T01:15:25;9.98;;;2.90;;
74945;SDS011;63509;45.250;38.102;2022-12-18T01:17:52;6.07;;;2.90;;
74945;SDS011;63509;45.250;38.102;2022-12-18T01:20:18;16.27;;;3.35;;
74945;SDS011;63509;45.250;38.102;2022-12-18T01:22:44;13.35;;;3.13;;
74945;SDS011;63509;45.250;38.102;2022-12-18T01:25:11;15.20;;;3.17;;
74945;SDS011;63509;45.250;38.102;2022-12-18T01:27:37;8.55;;;3.50;;
74945;SDS011;63509;45.250;38.102;2022-12-18T01:30:03;6.88;;;2.47;;
74945;SDS011;63509;45.250;38.102;2022-12-18T01:32:30;20.80;;;3.42;;
74945;SDS011;63509;45.250;38.102;2022-12-18T01:34:57;6.65;;;2.78;;
74945;SDS011;63509;45.250;38.102;2022-12-18T01:37:23;4.68;;;2.92;;
74945;SDS011;63509;45.250;38.102;2022-12-18T01:39:49;5.97;;;2.80;;
74945;SDS011;63509;45.250;38.102;2022-12-18T01:42:18;11.88;;;3.33;;
74945;SDS011;63509;45.250;38.102;2022-12-18T01:47:26;15.82;;;3.67;;
74945;SDS011;63509;45.250;38.102;2022-12-18T01:50:13;5.90;;;2.88;;
74945;SDS011;63509;45.250;38.102;2022-12-18T01:52:45;15.80;;;4.30;;
74945;SDS011;63509;45.250;38.102;2022-12-18T01:55:15;10.75;;;2.92;;
74945;SDS011;63509;45.250;38.102;2022-12-18T01:57:43;10.10;;;3.28;;
74945;SDS011;63509;45.250;38.102;2022-12-18T02:00:11;10.95;;;3.75;;
74945;SDS011;63509;45.250;38.102;2022-12-18T02:02:42;8.55;;;2.90;;
74945;SDS011;63509;45.250;38.102;2022-12-18T02:05:11;7.15;;;2.80;;
74945;SDS011;63509;45.250;38.102;2022-12-18T02:10:28;5.55;;;3.17;;
74945;SDS011;63509;45.250;38.102;2022-12-18T02:13:20;10.70;;;3.15;;
74945;SDS011;63509;45.250;38.102;2022-12-18T02:16:13;5.53;;;2.72;;
74945;SDS011;63509;45.250;38.102;2022-12-18T02:18:44;4.65;;;2.40;;
74945;SDS011;63509;45.250;38.102;2022-12-18T02:24:18;5.68;;;2.97;;
74945;SDS011;63509;45.250;38.102;2022-12-18T02:27:04;6.15;;;3.13;;
74945;SDS011;63509;45.250;38.102;2022-12-18T02:29:40;6.00;;;3.17;;
74945;SDS011;63509;45.250;38.102;2022-12-18T02:32:14;4.60;;;2.55;;
74945;SDS011;63509;45.250;38.102;2022-12-18T02:34:43;29.33;;;4.57;;
74945;SDS011;63509;45.250;38.102;2022-12-18T02:37:14;18.00;;;3.33;;
74945;SDS011;63509;45.250;38.102;2022-12-18T02:39:43;9.55;;;3.15;;
74945;SDS011;63509;45.250;38.102;2022-12-18T02:42:14;12.27;;;2.97;;
74945;SDS011;63509;45.250;38.102;2022-12-18T02:44:42;8.10;;;3.22;;
74945;SDS011;63509;45.250;38.102;2022-12-18T02:47:11;11.13;;;3.20;;
74945;SDS011;63509;45.250;38.102;2022-12-18T02:49:53;7.00;;;3.70;;
74945;SDS011;63509;45.250;38.102;2022-12-18T02:52:32;12.40;;;3.53;;
74945;SDS011;63509;45.250;38.102;2022-12-18T03:00:56;7.63;;;3.05;;
74945;SDS011;63509;45.250;38.102;2022-12-18T03:03:30;11.50;;;3.47;;
74945;SDS011;63509;45.250;38.102;2022-12-18T03:08:49;11.68;;;4.07;;
74945;SDS011;63509;45.250;38.102;2022-12-18T03:11:20;8.68;;;3.47;;
74945;SDS011;63509;45.250;38.102;2022-12-18T03:14:09;25.90;;;4.90;;
74945;SDS011;63509;45.250;38.102;2022-12-18T03:16:37;10.80;;;3.50;;
74945;SDS011;63509;45.250;38.102;2022-12-18T03:19:09;11.90;;;3.47;;
74945;SDS011;63509;45.250;38.102;2022-12-18T03:24:16;17.95;;;3.72;;
74945;SDS011;63509;45.250;38.102;2022-12-18T03:26:46;9.25;;;3.83;;
74945;SDS011;63509;45.250;38.102;2022-12-18T03:29:18;7.07;;;3.70;;
74945;SDS011;63509;45.250;38.102;2022-12-18T03:31:51;8.48;;;2.80;;
74945;SDS011;63509;45.250;38.102;2022-12-18T03:34:27;5.25;;;3.03;;
74945;SDS011;63509;45.250;38.102;2022-12-18T03:36:58;6.63;;;3.58;;
74945;SDS011;63509;45.250;38.102;2022-12-18T03:39:24;6.93;;;3.05;;
74945;SDS011;63509;45.250;38.102;2022-12-18T03:50:44;7.70;;;3.47;;
74945;SDS011;63509;45.250;38.102;2022-12-18T03:53:35;4.93;;;2.55;;
74945;SDS011;63509;45.250;38.102;2022-12-18T03:56:03;24.85;;;4.28;;
74945;SDS011;63509;45.250;38.102;2022-12-18T03:58:35;11.75;;;3.08;;
74945;SDS011;63509;45.250;38.102;2022-12-18T04:01:14;11.77;;;4.03;;
74945;SDS011;63509;45.250;38.102;2022-12-18T04:03:43;13.38;;;5.18;;
74945;SDS011;63509;45.250;38.102;2022-12-18T04:06:11;7.18;;;3.70;;
74945;SDS011;63509;45.250;38.102;2022-12-18T04:08:40;14.18;;;4.60;;
74945;SDS011;63509;45.250;38.102;2022-12-18T04:11:09;12.10;;;4.05;;
74945;SDS011;63509;45.250;38.102;2022-12-18T04:13:37;6.15;;;3.17;;
74945;SDS011;63509;45.250;38.102;2022-12-18T04:16:13;8.30;;;3.05;;
74945;SDS011;63509;45.250;38.102;2022-12-18T04:18:42;16.63;;;3.60;;
74945;SDS011;63509;45.250;38.102;2022-12-18T04:21:09;8.02;;;3.50;;
74945;SDS011;63509;45.250;38.102;2022-12-18T04:23:36;6.47;;;3.28;;
74945;SDS011;63509;45.250;38.102;2022-12-18T04:26:02;8.23;;;2.92;;
74945;SDS011;63509;45.250;38.102;2022-12-18T04:28:40;11.48;;;4.53;;
74945;SDS011;63509;45.250;38.102;2022-12-18T04:31:06;13.77;;;4.70;;
74945;SDS011;63509;45.250;38.102;2022-12-18T04:33:32;14.93;;;4.03;;
74945;SDS011;63509;45.250;38.102;2022-12-18T04:35:58;13.77;;;4.05;;
74945;SDS011;63509;45.250;38.102;2022-12-18T04:38:25;13.18;;;3.15;;
74945;SDS011;63509;45.250;38.102;2022-12-18T04:43:26;19.85;;;3.83;;
74945;SDS011;63509;45.250;38.102;2022-12-18T04:45:52;17.58;;;3.95;;
74945;SDS011;63509;45.250;38.102;2022-12-18T04:48:18;18.42;;;4.07;;
74945;SDS011;63509;45.250;38.102;2022-12-18T04:50:46;13.40;;;3.65;;
74945;SDS011;63509;45.250;38.102;2022-12-18T04:53:12;11.70;;;2.65;;
74945;SDS011;63509;45.250;38.102;2022-12-18T04:55:38;12.27;;;3.35;;
74945;SDS011;63509;45.250;38.102;2022-12-18T04:58:04;13.13;;;3.13;;
74945;SDS011;63509;45.250;38.102;2022-12-18T05:00:30;14.60;;;3.72;;
74945;SDS011;63509;45.250;38.102;2022-12-18T05:02:56;9.85;;;3.08;;
74945;SDS011;63509;45.250;38.102;2022-12-18T05:05:22;10.13;;;3.58;;
74945;SDS011;63509;45.250;38.102;2022-12-18T05:07:49;10.43;;;4.00;;
74945;SDS011;63509;45.250;38.102;2022-12-18T05:10:15;11.15;;;4.03;;
74945;SDS011;63509;45.250;38.102;2022-12-18T05:12:41;11.07;;;4.53;;
74945;SDS011;63509;45.250;38.102;2022-12-18T05:15:24;18.65;;;4.40;;
74945;SDS011;63509;45.250;38.102;2022-12-18T05:17:54;29.35;;;4.90;;
74945;SDS011;63509;45.250;38.102;2022-12-18T05:20:20;21.90;;;4.63;;
74945;SDS011;63509;45.250;38.102;2022-12-18T05:22:46;21.38;;;5.97;;
74945;SDS011;63509;45.250;38.102;2022-12-18T05:25:12;13.50;;;5.05;;
74945;SDS011;63509;45.250;38.102;2022-12-18T05:27:38;11.38;;;3.67;;
74945;SDS011;63509;45.250;38.102;2022-12-18T05:30:04;22.98;;;4.18;;
74945;SDS011;63509;45.250;38.102;2022-12-18T05:32:31;29.83;;;5.07;;
74945;SDS011;63509;45.250;38.102;2022-12-18T05:34:57;43.40;;;6.07;;
74945;SDS011;63509;45.250;38.102;2022-12-18T05:37:23;27.70;;;4.82;;
74945;SDS011;63509;45.250;38.102;2022-12-18T05:39:49;25.13;;;4.60;;
74945;SDS011;63509;45.250;38.102;2022-12-18T05:42:15;19.08;;;4.53;;
74945;SDS011;63509;45.250;38.102;2022-12-18T05:44:41;31.67;;;5.35;;
74945;SDS011;63509;45.250;38.102;2022-12-18T05:47:09;42.70;;;6.50;;
74945;SDS011;63509;45.250;38.102;2022-12-18T05:49:35;64.63;;;7.07;;
74945;SDS011;63509;45.250;38.102;2022-12-18T05:52:01;24.50;;;5.03;;
74945;SDS011;63509;45.250;38.102;2022-12-18T05:54:27;18.63;;;5.00;;
74945;SDS011;63509;45.250;38.102;2022-12-18T05:56:54;29.73;;;5.15;;
74945;SDS011;63509;45.250;38.102;2022-12-18T05:59:20;29.48;;;5.90;;
74945;SDS011;63509;45.250;38.102;2022-12-18T06:01:46;58.08;;;5.72;;
74945;SDS011;63509;45.250;38.102;2022-12-18T06:04:12;46.90;;;5.35;;
74945;SDS011;63509;45.250;38.102;2022-12-18T06:06:38;41.30;;;6.20;;
74945;SDS011;63509;45.250;38.102;2022-12-18T06:09:04;27.02;;;4.43;;
74945;SDS011;63509;45.250;38.102;2022-12-18T06:11:35;23.63;;;3.33;;
74945;SDS011;63509;45.250;38.102;2022-12-18T06:14:02;12.75;;;3.67;;
74945;SDS011;63509;45.250;38.102;2022-12-18T06:16:30;10.23;;;4.15;;
74945;SDS011;63509;45.250;38.102;2022-12-18T06:18:56;6.22;;;2.92;;
74945;SDS011;63509;45.250;38.102;2022-12-18T06:21:27;15.50;;;4.00;;
74945;SDS011;63509;45.250;38.102;2022-12-18T06:23:54;24.23;;;3.97;;
74945;SDS011;63509;45.250;38.102;2022-12-18T06:26:20;13.77;;;3.45;;
74945;SDS011;63509;45.250;38.102;2022-12-18T06:28:46;6.13;;;3.05;;
74945;SDS011;63509;45.250;38.102;2022-12-18T06:31:12;12.88;;;3.40;;
74945;SDS011;63509;45.250;38.102;2022-12-18T06:33:39;7.75;;;3.40;;
74945;SDS011;63509;45.250;38.102;2022-12-18T06:36:09;5.95;;;4.05;;
74945;SDS011;63509;45.250;38.102;2022-12-18T06:38:37;7.07;;;3.25;;
74945;SDS011;63509;45.250;38.102;2022-12-18T06:41:12;8.63;;;4.00;;
74945;SDS011;63509;45.250;38.102;2022-12-18T06:43:40;8.63;;;3.63;;
74945;SDS011;63509;45.250;38.102;2022-12-18T06:46:07;6.50;;;3.50;;
74945;SDS011;63509;45.250;38.102;2022-12-18T06:48:33;8.90;;;3.30;;
74945;SDS011;63509;45.250;38.102;2022-12-18T06:51:00;9.35;;;3.28;;
74945;SDS011;63509;45.250;38.102;2022-12-18T06:53:27;9.00;;;3.00;;
74945;SDS011;63509;45.250;38.102;2022-12-18T06:56:03;10.52;;;3.40;;
74945;SDS011;63509;45.250;38.102;2022-12-18T06:58:31;14.48;;;4.10;;
74945;SDS011;63509;45.250;38.102;2022-12-18T07:01:01;11.48;;;3.17;;
74945;SDS011;63509;45.250;38.102;2022-12-18T07:03:28;7.22;;;2.83;;
74945;SDS011;63509;45.250;38.102;2022-12-18T07:05:54;6.10;;;2.60;;
74945;SDS011;63509;45.250;38.102;2022-12-18T07:08:20;4.88;;;2.22;;
74945;SDS011;63509;45.250;38.102;2022-12-18T07:10:46;7.55;;;3.65;;
74945;SDS011;63509;45.250;38.102;2022-12-18T07:13:15;4.72;;;2.90;;
74945;SDS011;63509;45.250;38.102;2022-12-18T07:15:41;11.80;;;3.63;;
74945;SDS011;63509;45.250;38.102;2022-12-18T07:18:08;5.72;;;3.20;;
74945;SDS011;63509;45.250;38.102;2022-12-18T07:20:34;9.80;;;3.33;;
74945;SDS011;63509;45.250;38.102;2022-12-18T07:23:01;8.90;;;3.30;;
74945;SDS011;63509;45.250;38.102;2022-12-18T07:25:29;9.15;;;3.28;;
74945;SDS011;63509;45.250;38.102;2022-12-18T07:27:55;5.47;;;2.47;;
74945;SDS011;63509;45.250;38.102;2022-12-18T07:30:21;5.63;;;2.75;;
74945;SDS011;63509;45.250;38.102;2022-12-18T07:32:47;9.50;;;2.42;;
74945;SDS011;63509;45.250;38.102;2022-12-18T07:35:13;8.45;;;3.15;;
74945;SDS011;63509;45.250;38.102;2022-12-18T07:37:39;17.25;;;3.63;;
74945;SDS011;63509;45.250;38.102;2022-12-18T07:40:05;9.45;;;2.60;;
74945;SDS011;63509;45.250;38.102;2022-12-18T07:42:32;9.52;;;2.80;;
74945;SDS011;63509;45.250;38.102;2022-12-18T07:44:58;12.88;;;2.97;;
74945;SDS011;63509;45.250;38.102;2022-12-18T07:47:25;5.72;;;2.85;;
74945;SDS011;63509;45.250;38.102;2022-12-18T07:49:51;7.45;;;2.50;;
74945;SDS011;63509;45.250;38.102;2022-12-18T07:52:17;7.40;;;3.13;;
74945;SDS011;63509;45.250;38.102;2022-12-18T07:54:44;13.45;;;2.88;;
74945;SDS011;63509;45.250;38.102;2022-12-18T07:57:10;8.02;;;2.42;;
74945;SDS011;63509;45.250;38.102;2022-12-18T07:59:36;8.43;;;3.70;;
74945;SDS011;63509;45.250;38.102;2022-12-18T08:02:02;12.43;;;7.10;;
74945;SDS011;63509;45.250;38.102;2022-12-18T08:04:28;10.40;;;5.97;;
74945;SDS011;63509;45.250;38.102;2022-12-18T08:06:54;9.48;;;4.18;;
74945;SDS011;63509;45.250;38.102;2022-12-18T08:09:20;10.80;;;3.58;;
74945;SDS011;63509;45.250;38.102;2022-12-18T08:11:46;14.48;;;3.83;;
74945;SDS011;63509;45.250;38.102;2022-12-18T08:14:12;12.43;;;3.95;;
74945;SDS011;63509;45.250;38.102;2022-12-18T08:16:40;11.57;;;3.78;;
74945;SDS011;63509;45.250;38.102;2022-12-18T08:19:06;11.82;;;4.55;;
74945;SDS011;63509;45.250;38.102;2022-12-18T08:21:32;30.05;;;9.73;;
74945;SDS011;63509;45.250;38.102;2022-12-18T08:23:58;26.95;;;10.73;;
74945;SDS011;63509;45.250;38.102;2022-12-18T08:26:26;38.72;;;15.90;;
74945;SDS011;63509;45.250;38.102;2022-12-18T08:28:54;47.55;;;20.30;;
74945;SDS011;63509;45.250;38.102;2022-12-18T08:31:22;34.88;;;19.10;;
74945;SDS011;63509;45.250;38.102;2022-12-18T08:33:48;21.05;;;13.43;;
74945;SDS011;63509;45.250;38.102;2022-12-18T08:36:15;17.27;;;6.88;;
74945;SDS011;63509;45.250;38.102;2022-12-18T08:38:42;19.88;;;7.75;;
74945;SDS011;63509;45.250;38.102;2022-12-18T08:41:12;37.42;;;11.60;;
74945;SDS011;63509;45.250;38.102;2022-12-18T08:43:39;18.48;;;6.40;;
74945;SDS011;63509;45.250;38.102;2022-12-18T08:46:25;14.05;;;4.55;;
74945;SDS011;63509;45.250;38.102;2022-12-18T08:48:53;10.20;;;3.60;;
74945;SDS011;63509;45.250;38.102;2022-12-18T08:51:23;6.85;;;3.35;;
74945;SDS011;63509;45.250;38.102;2022-12-18T08:53:49;5.25;;;2.60;;
74945;SDS011;63509;45.250;38.102;2022-12-18T08:56:15;6.13;;;3.45;;
74945;SDS011;63509;45.250;38.102;2022-12-18T08:58:41;7.22;;;3.50;;
74945;SDS011;63509;45.250;38.102;2022-12-18T09:01:09;7.53;;;3.92;;
74945;SDS011;63509;45.250;38.102;2022-12-18T09:03:37;5.70;;;3.25;;
74945;SDS011;63509;45.250;38.102;2022-12-18T09:06:04;7.05;;;2.63;;
74945;SDS011;63509;45.250;38.102;2022-12-18T09:08:30;5.68;;;2.85;;
74945;SDS011;63509;45.250;38.102;2022-12-18T09:10:57;5.82;;;3.08;;
74945;SDS011;63509;45.250;38.102;2022-12-18T09:13:23;4.90;;;2.80;;
74945;SDS011;63509;45.250;38.102;2022-12-18T09:15:50;12.35;;;3.17;;
74945;SDS011;63509;45.250;38.102;2022-12-18T09:18:17;6.18;;;3.17;;
74945;SDS011;63509;45.250;38.102;2022-12-18T09:20:45;9.73;;;4.15;;
74945;SDS011;63509;45.250;38.102;2022-12-18T09:23:12;6.60;;;3.47;;
74945;SDS011;63509;45.250;38.102;2022-12-18T09:25:38;11.75;;;4.68;;
74945;SDS011;63509;45.250;38.102;2022-12-18T09:28:06;10.07;;;4.43;;
74945;SDS011;63509;45.250;38.102;2022-12-18T09:30:38;9.27;;;4.88;;
74945;SDS011;63509;45.250;38.102;2022-12-18T09:33:05;8.85;;;4.28;;
74945;SDS011;63509;45.250;38.102;2022-12-18T09:35:31;6.53;;;3.42;;
74945;SDS011;63509;45.250;38.102;2022-12-18T09:37:57;7.53;;;3.95;;
74945;SDS011;63509;45.250;38.102;2022-12-18T09:40:24;11.43;;;4.32;;
74945;SDS011;63509;45.250;38.102;2022-12-18T09:42:56;13.65;;;4.88;;
74945;SDS011;63509;45.250;38.102;2022-12-18T09:45:25;7.28;;;3.80;;
74945;SDS011;63509;45.250;38.102;2022-12-18T09:47:52;7.75;;;4.28;;
74945;SDS011;63509;45.250;38.102;2022-12-18T09:52:57;9.60;;;4.25;;
74945;SDS011;63509;45.250;38.102;2022-12-18T09:55:35;14.98;;;5.18;;
74945;SDS011;63509;45.250;38.102;2022-12-18T09:58:10;11.07;;;6.10;;
74945;SDS011;63509;45.250;38.102;2022-12-18T10:00:58;22.80;;;7.88;;
74945;SDS011;63509;45.250;38.102;2022-12-18T10:03:25;18.15;;;6.75;;
74945;SDS011;63509;45.250;38.102;2022-12-18T10:08:42;22.00;;;8.95;;
74945;SDS011;63509;45.250;38.102;2022-12-18T10:11:32;25.30;;;9.20;;
74945;SDS011;63509;45.250;38.102;2022-12-18T10:22:30;13.43;;;8.07;;
74945;SDS011;63509;45.250;38.102;2022-12-18T10:27:39;13.35;;;8.13;;
74945;SDS011;63509;45.250;38.102;2022-12-18T10:30:14;14.10;;;7.78;;
74945;SDS011;63509;45.250;38.102;2022-12-18T10:32:42;14.40;;;7.57;;
74945;SDS011;63509;45.250;38.102;2022-12-18T10:35:11;13.00;;;8.25;;
74945;SDS011;63509;45.250;38.102;2022-12-18T10:38:20;13.00;;;7.78;;
74945;SDS011;63509;45.250;38.102;2022-12-18T10:43:15;14.15;;;9.18;;
74945;SDS011;63509;45.250;38.102;2022-12-18T10:45:57;14.18;;;8.65;;
74945;SDS011;63509;45.250;38.102;2022-12-18T10:48:25;13.98;;;8.40;;
74945;SDS011;63509;45.250;38.102;2022-12-18T10:50:52;15.65;;;8.32;;
74945;SDS011;63509;45.250;38.102;2022-12-18T10:53:21;14.45;;;8.98;;
74945;SDS011;63509;45.250;38.102;2022-12-18T10:55:51;13.40;;;8.70;;
74945;SDS011;63509;45.250;38.102;2022-12-18T11:01:03;21.55;;;10.15;;
74945;SDS011;63509;45.250;38.102;2022-12-18T11:08:44;16.00;;;8.48;;
74945;SDS011;63509;45.250;38.102;2022-12-18T11:11:28;11.68;;;7.00;;
74945;SDS011;63509;45.250;38.102;2022-12-18T11:14:05;14.57;;;7.80;;
74945;SDS011;63509;45.250;38.102;2022-12-18T11:16:47;15.65;;;8.70;;
74945;SDS011;63509;45.250;38.102;2022-12-18T11:22:02;20.30;;;9.02;;
74945;SDS011;63509;45.250;38.102;2022-12-18T11:24:49;26.13;;;12.00;;
74945;SDS011;63509;45.250;38.102;2022-12-18T11:27:37;41.03;;;19.77;;
74945;SDS011;63509;45.250;38.102;2022-12-18T11:30:09;42.47;;;20.77;;
74945;SDS011;63509;45.250;38.102;2022-12-18T11:32:43;50.15;;;20.17;;
74945;SDS011;63509;45.250;38.102;2022-12-18T11:35:15;35.85;;;15.23;;
74945;SDS011;63509;45.250;38.102;2022-12-18T11:38:18;25.38;;;12.35;;
74945;SDS011;63509;45.250;38.102;2022-12-18T11:40:51;29.75;;;12.63;;
74945;SDS011;63509;45.250;38.102;2022-12-18T11:43:29;27.23;;;11.30;;
74945;SDS011;63509;45.250;38.102;2022-12-18T11:46:14;26.48;;;11.23;;
74945;SDS011;63509;45.250;38.102;2022-12-18T11:51:46;24.38;;;10.80;;
74945;SDS011;63509;45.250;38.102;2022-12-18T11:54:30;22.02;;;10.40;;
74945;SDS011;63509;45.250;38.102;2022-12-18T12:00:07;24.23;;;12.05;;
74945;SDS011;63509;45.250;38.102;2022-12-18T12:13:28;28.08;;;9.38;;
74945;SDS011;63509;45.250;38.102;2022-12-18T12:16:31;32.95;;;9.75;;
74945;SDS011;63509;45.250;38.102;2022-12-18T12:19:18;29.50;;;11.50;;
74945;SDS011;63509;45.250;38.102;2022-12-18T12:21:47;24.92;;;10.35;;
74945;SDS011;63509;45.250;38.102;2022-12-18T12:30:20;31.00;;;9.18;;
74945;SDS011;63509;45.250;38.102;2022-12-18T12:32:59;23.38;;;8.18;;
74945;SDS011;63509;45.250;38.102;2022-12-18T12:38:28;30.05;;;9.00;;
74945;SDS011;63509;45.250;38.102;2022-12-18T12:41:04;29.75;;;9.52;;
74945;SDS011;63509;45.250;38.102;2022-12-18T12:43:53;27.75;;;8.82;;
74945;SDS011;63509;45.250;38.102;2022-12-18T12:46:22;28.98;;;9.35;;
74945;SDS011;63509;45.250;38.102;2022-12-18T12:48:52;25.42;;;8.98;;
74945;SDS011;63509;45.250;38.102;2022-12-18T12:53:56;18.48;;;8.07;;
74945;SDS011;63509;45.250;38.102;2022-12-18T12:56:24;17.73;;;6.63;;
74945;SDS011;63509;45.250;38.102;2022-12-18T12:58:59;24.90;;;8.48;;
74945;SDS011;63509;45.250;38.102;2022-12-18T13:04:56;17.92;;;6.45;;
74945;SDS011;63509;45.250;38.102;2022-12-18T13:12:54;15.32;;;5.80;;
74945;SDS011;63509;45.250;38.102;2022-12-18T13:18:18;14.30;;;5.55;;
74945;SDS011;63509;45.250;38.102;2022-12-18T13:20:49;16.33;;;6.38;;
74945;SDS011;63509;45.250;38.102;2022-12-18T13:23:31;16.23;;;5.60;;
74945;SDS011;63509;45.250;38.102;2022-12-18T13:31:14;18.60;;;8.48;;
74945;SDS011;63509;45.250;38.102;2022-12-18T13:36:49;16.77;;;6.85;;
74945;SDS011;63509;45.250;38.102;2022-12-18T13:42:30;18.25;;;10.15;;
74945;SDS011;63509;45.250;38.102;2022-12-18T13:44:34;12.57;;;7.93;;
74945;SDS011;63509;45.250;38.102;2022-12-18T13:47:02;18.80;;;7.45;;
74945;SDS011;63509;45.250;38.102;2022-12-18T13:49:37;16.75;;;6.30;;
74945;SDS011;63509;45.250;38.102;2022-12-18T13:52:21;18.50;;;6.80;;
74945;SDS011;63509;45.250;38.102;2022-12-18T13:54:56;13.00;;;6.43;;
74945;SDS011;63509;45.250;38.102;2022-12-18T13:57:28;15.60;;;6.60;;
74945;SDS011;63509;45.250;38.102;2022-12-18T14:02:47;18.52;;;7.18;;
74945;SDS011;63509;45.250;38.102;2022-12-18T14:05:28;12.68;;;6.45;;
74945;SDS011;63509;45.250;38.102;2022-12-18T14:08:00;11.70;;;7.00;;
74945;SDS011;63509;45.250;38.102;2022-12-18T14:10:30;13.57;;;6.82;;
74945;SDS011;63509;45.250;38.102;2022-12-18T14:12:56;14.40;;;7.53;;
74945;SDS011;63509;45.250;38.102;2022-12-18T14:15:34;13.07;;;6.78;;
74945;SDS011;63509;45.250;38.102;2022-12-18T14:20:41;9.20;;;5.95;;
74945;SDS011;63509;45.250;38.102;2022-12-18T14:26:29;10.13;;;5.75;;
74945;SDS011;63509;45.250;38.102;2022-12-18T14:29:00;14.10;;;5.95;;
74945;SDS011;63509;45.250;38.102;2022-12-18T14:31:43;14.80;;;5.88;;
74945;SDS011;63509;45.250;38.102;2022-12-18T14:34:16;16.23;;;6.50;;
74945;SDS011;63509;45.250;38.102;2022-12-18T14:36:51;12.93;;;6.70;;
74945;SDS011;63509;45.250;38.102;2022-12-18T14:39:18;13.30;;;6.93;;
74945;SDS011;63509;45.250;38.102;2022-12-18T14:41:44;16.20;;;6.50;;
74945;SDS011;63509;45.250;38.102;2022-12-18T14:44:11;11.27;;;6.68;;
74945;SDS011;63509;45.250;38.102;2022-12-18T14:46:38;12.60;;;6.40;;
74945;SDS011;63509;45.250;38.102;2022-12-18T14:52:02;10.25;;;5.20;;
74945;SDS011;63509;45.250;38.102;2022-12-18T14:54:30;14.60;;;6.78;;
74945;SDS011;63509;45.250;38.102;2022-12-18T14:57:00;12.55;;;7.20;;
74945;SDS011;63509;45.250;38.102;2022-12-18T14:59:28;10.88;;;6.93;;
74945;SDS011;63509;45.250;38.102;2022-12-18T15:02:03;12.75;;;7.47;;
74945;SDS011;63509;45.250;38.102;2022-12-18T15:04:34;11.95;;;6.07;;
74945;SDS011;63509;45.250;38.102;2022-12-18T15:12:34;10.90;;;5.78;;
74945;SDS011;63509;45.250;38.102;2022-12-18T15:15:03;12.40;;;6.15;;
74945;SDS011;63509;45.250;38.102;2022-12-18T15:17:30;10.75;;;6.53;;
74945;SDS011;63509;45.250;38.102;2022-12-18T15:20:00;12.40;;;6.13;;
74945;SDS011;63509;45.250;38.102;2022-12-18T15:22:30;9.07;;;5.68;;
74945;SDS011;63509;45.250;38.102;2022-12-18T15:24:59;8.88;;;5.20;;
74945;SDS011;63509;45.250;38.102;2022-12-18T15:27:35;9.40;;;5.65;;
74945;SDS011;63509;45.250;38.102;2022-12-18T15:32:39;10.63;;;5.47;;
74945;SDS011;63509;45.250;38.102;2022-12-18T15:37:34;7.53;;;4.70;;
74945;SDS011;63509;45.250;38.102;2022-12-18T15:40:00;8.20;;;4.80;;
74945;SDS011;63509;45.250;38.102;2022-12-18T15:42:28;7.60;;;4.13;;
74945;SDS011;63509;45.250;38.102;2022-12-18T15:45:13;8.15;;;3.90;;
74945;SDS011;63509;45.250;38.102;2022-12-18T15:47:39;9.05;;;4.30;;
74945;SDS011;63509;45.250;38.102;2022-12-18T15:50:07;6.95;;;4.15;;
74945;SDS011;63509;45.250;38.102;2022-12-18T15:52:47;6.85;;;3.75;;
74945;SDS011;63509;45.250;38.102;2022-12-18T15:55:17;16.70;;;4.53;;
74945;SDS011;63509;45.250;38.102;2022-12-18T15:58:03;10.15;;;4.38;;
74945;SDS011;63509;45.250;38.102;2022-12-18T16:00:31;7.28;;;3.78;;
74945;SDS011;63509;45.250;38.102;2022-12-18T16:02:59;7.30;;;4.05;;
74945;SDS011;63509;45.250;38.102;2022-12-18T16:05:26;7.88;;;5.13;;
74945;SDS011;63509;45.250;38.102;2022-12-18T16:07:52;12.20;;;5.30;;
74945;SDS011;63509;45.250;38.102;2022-12-18T16:10:19;9.82;;;4.10;;
74945;SDS011;63509;45.250;38.102;2022-12-18T16:12:45;11.20;;;4.80;;
74945;SDS011;63509;45.250;38.102;2022-12-18T16:15:12;8.73;;;4.28;;
74945;SDS011;63509;45.250;38.102;2022-12-18T16:17:41;6.65;;;3.85;;
74945;SDS011;63509;45.250;38.102;2022-12-18T16:20:12;8.35;;;4.20;;
74945;SDS011;63509;45.250;38.102;2022-12-18T16:22:40;8.38;;;3.22;;
74945;SDS011;63509;45.250;38.102;2022-12-18T16:25:20;7.50;;;3.83;;
74945;SDS011;63509;45.250;38.102;2022-12-18T16:27:48;7.45;;;4.05;;
74945;SDS011;63509;45.250;38.102;2022-12-18T16:30:15;6.95;;;3.95;;
74945;SDS011;63509;45.250;38.102;2022-12-18T16:32:44;6.30;;;3.70;;
74945;SDS011;63509;45.250;38.102;2022-12-18T16:35:11;5.43;;;3.28;;
74945;SDS011;63509;45.250;38.102;2022-12-18T16:37:38;8.13;;;3.42;;
74945;SDS011;63509;45.250;38.102;2022-12-18T16:40:07;5.60;;;3.35;;
74945;SDS011;63509;45.250;38.102;2022-12-18T16:42:35;5.18;;;3.13;;
74945;SDS011;63509;45.250;38.102;2022-12-18T16:45:03;5.15;;;2.63;;
74945;SDS011;63509;45.250;38.102;2022-12-18T16:47:30;5.95;;;2.95;;
74945;SDS011;63509;45.250;38.102;2022-12-18T16:49:56;5.97;;;2.97;;
74945;SDS011;63509;45.250;38.102;2022-12-18T16:52:22;5.28;;;2.90;;
74945;SDS011;63509;45.250;38.102;2022-12-18T16:54:48;4.05;;;2.63;;
74945;SDS011;63509;45.250;38.102;2022-12-18T16:57:15;4.75;;;3.05;;